Meath Environmental Platform

Observations for Trim Market St

Time AQI Temp °C Hum % Pres Pa CO μg/m³ H₂S μg/m³ NO μg/m³ NO₂ μg/m³ O₃ μg/m³ SO₂ μg/m³ PM1 μg/m³ PM2.5 μg/m³ PM10 μg/m³
Thursday 27 August 2026
19:21 2 19 82 2,147,483,647 0.39 0 1.42 27.5 39.84 0 14.96 17.04 25.33
19:20 2 19 82 2,147,483,647 0.26 0 1.31 23.45 38.73 0 14.96 17.98 28.13
19:19 2 19 82 2,147,483,647 0.24 0 1.2 31.87 50.03 0 14.25 16.58 24.79
19:18 2 19 82 2,147,483,647 0.24 0 1.3 25.62 35.36 0 14.96 18.46 28.15
19:17 2 19 82 2,147,483,647 0.19 0 1.37 22.41 50.35 0 13.54 16.58 25.36
19:16 2 19 82 2,147,483,647 0.21 0 1.24 18.8 43.38 0 14.96 17.06 27.06
19:15 2 19 82 2,147,483,647 0.18 0 1.28 22.63 43.45 0 14.96 16.59 24.27
19:11 2 19.1 81 2,147,483,647 0.15 0 1.23 21.18 36.54 0 13.54 16.61 23.74
19:07 2 19.1 81 2,147,483,647 0.14 0 1.31 17.32 44.36 0 12.83 16.15 23.2
19:03 2 19.2 81 2,147,483,647 0.17 0 1.73 22.76 36.2 0 14.25 15.69 24.34
19:01 2 19.3 81 2,147,483,647 0.33 0 1.1 25.26 40.24 0 13.54 15.71 22.69
18:58 2 19.3 81 2,147,483,647 0.16 0 0.65 14.89 46.86 0 12.83 14.77 21.02
18:53 2 19.4 81 2,147,483,647 0.27 0 1.83 20.16 36.06 0 13.54 15.26 22.18
18:52 2 19.4 81 2,147,483,647 0.21 0 1.94 22.84 37.18 0 13.54 17.15 25.57
18:51 2 19.4 81 2,147,483,647 0.16 0 2.24 22.84 35.66 0 13.54 16.21 25.01
18:50 2 19.4 80 2,147,483,647 0.14 0 1.97 23.91 34.57 0 13.54 15.75 22.77
18:49 2 19.5 80 2,147,483,647 0.14 0 1.68 20.21 39.18 0 11.4 14.34 20.51
18:48 2 19.5 80 2,147,483,647 0.14 0 1.5 18.34 37.36 0 12.11 14.34 19.95
18:47 2 19.5 80 2,147,483,647 0.15 0 1.41 27.59 33.96 0 12.83 14.82 20.53
18:46 2 19.5 80 2,147,483,647 0.14 0 1.29 19.25 35.79 0 12.83 15.76 25.05